sensor_id;sensor_type;location;lat;lon;timestamp;temperature;humidity
2995;DHT22;35277;49.890;8.222;2023-02-28T00:01:24;21.70;61.00
2995;DHT22;35277;49.890;8.222;2023-02-28T00:03:52;21.70;61.00
2995;DHT22;35277;49.890;8.222;2023-02-28T00:06:20;21.70;61.00
2995;DHT22;35277;49.890;8.222;2023-02-28T00:08:48;21.70;61.00
2995;DHT22;35277;49.890;8.222;2023-02-28T00:11:17;21.70;61.00
2995;DHT22;35277;49.890;8.222;2023-02-28T00:13:46;21.70;61.00
2995;DHT22;35277;49.890;8.222;2023-02-28T00:16:16;21.70;61.00
2995;DHT22;35277;49.890;8.222;2023-02-28T00:18:45;21.70;61.10
2995;DHT22;35277;49.890;8.222;2023-02-28T00:21:14;21.70;61.10
2995;DHT22;35277;49.890;8.222;2023-02-28T00:23:42;21.70;61.10
2995;DHT22;35277;49.890;8.222;2023-02-28T00:26:10;21.70;61.10
2995;DHT22;35277;49.890;8.222;2023-02-28T00:28:44;21.70;61.10
2995;DHT22;35277;49.890;8.222;2023-02-28T00:31:12;21.70;61.10
2995;DHT22;35277;49.890;8.222;2023-02-28T00:33:40;21.70;61.10
2995;DHT22;35277;49.890;8.222;2023-02-28T00:36:09;21.70;61.10
2995;DHT22;35277;49.890;8.222;2023-02-28T00:38:38;21.70;61.10
2995;DHT22;35277;49.890;8.222;2023-02-28T00:41:06;21.70;61.20
2995;DHT22;35277;49.890;8.222;2023-02-28T00:43:37;21.70;61.10
2995;DHT22;35277;49.890;8.222;2023-02-28T00:46:06;21.70;61.10
2995;DHT22;35277;49.890;8.222;2023-02-28T00:48:34;21.70;61.20
2995;DHT22;35277;49.890;8.222;2023-02-28T00:51:02;21.70;61.20
2995;DHT22;35277;49.890;8.222;2023-02-28T00:53:30;21.70;61.20
2995;DHT22;35277;49.890;8.222;2023-02-28T00:55:59;21.70;61.20
2995;DHT22;35277;49.890;8.222;2023-02-28T00:58:27;21.70;61.20
2995;DHT22;35277;49.890;8.222;2023-02-28T01:00:55;21.70;61.20
2995;DHT22;35277;49.890;8.222;2023-02-28T01:03:24;21.70;61.30
2995;DHT22;35277;49.890;8.222;2023-02-28T01:05:51;21.70;61.20
2995;DHT22;35277;49.890;8.222;2023-02-28T01:08:20;21.70;61.20
2995;DHT22;35277;49.890;8.222;2023-02-28T01:10:49;21.70;61.30
2995;DHT22;35277;49.890;8.222;2023-02-28T01:13:18;21.70;61.30
2995;DHT22;35277;49.890;8.222;2023-02-28T01:15:49;21.70;61.30
2995;DHT22;35277;49.890;8.222;2023-02-28T01:18:18;21.70;61.30
2995;DHT22;35277;49.890;8.222;2023-02-28T01:20:47;21.70;61.30
2995;DHT22;35277;49.890;8.222;2023-02-28T01:23:15;21.70;61.30
2995;DHT22;35277;49.890;8.222;2023-02-28T01:25:43;21.70;61.30
2995;DHT22;35277;49.890;8.222;2023-02-28T01:28:11;21.70;61.30
2995;DHT22;35277;49.890;8.222;2023-02-28T01:30:39;21.70;61.30
2995;DHT22;35277;49.890;8.222;2023-02-28T01:33:06;21.70;61.30
2995;DHT22;35277;49.890;8.222;2023-02-28T01:35:36;21.70;61.30
2995;DHT22;35277;49.890;8.222;2023-02-28T01:38:05;21.70;61.30
2995;DHT22;35277;49.890;8.222;2023-02-28T01:40:47;21.70;61.30
2995;DHT22;35277;49.890;8.222;2023-02-28T01:43:20;21.70;61.30
2995;DHT22;35277;49.890;8.222;2023-02-28T01:45:48;21.70;61.40
2995;DHT22;35277;49.890;8.222;2023-02-28T01:48:16;21.70;61.40
2995;DHT22;35277;49.890;8.222;2023-02-28T01:50:46;21.70;61.30
2995;DHT22;35277;49.890;8.222;2023-02-28T01:53:19;21.70;61.30
2995;DHT22;35277;49.890;8.222;2023-02-28T01:55:49;21.70;61.40
2995;DHT22;35277;49.890;8.222;2023-02-28T01:58:20;21.70;61.40
2995;DHT22;35277;49.890;8.222;2023-02-28T02:00:48;21.70;61.30
2995;DHT22;35277;49.890;8.222;2023-02-28T02:03:18;21.70;61.40
2995;DHT22;35277;49.890;8.222;2023-02-28T02:05:47;21.70;61.40
2995;DHT22;35277;49.890;8.222;2023-02-28T02:08:17;21.70;61.40
2995;DHT22;35277;49.890;8.222;2023-02-28T02:10:49;21.70;61.40
2995;DHT22;35277;49.890;8.222;2023-02-28T02:13:33;21.70;61.50
2995;DHT22;35277;49.890;8.222;2023-02-28T02:16:14;21.70;61.50
2995;DHT22;35277;49.890;8.222;2023-02-28T02:18:48;21.60;61.30
2995;DHT22;35277;49.890;8.222;2023-02-28T02:22:00;21.60;61.40
2995;DHT22;35277;49.890;8.222;2023-02-28T02:24:50;21.60;61.40
2995;DHT22;35277;49.890;8.222;2023-02-28T02:27:34;21.60;61.40
2995;DHT22;35277;49.890;8.222;2023-02-28T02:30:20;21.70;61.50
2995;DHT22;35277;49.890;8.222;2023-02-28T02:33:06;21.60;61.40
2995;DHT22;35277;49.890;8.222;2023-02-28T02:35:45;21.60;61.40
2995;DHT22;35277;49.890;8.222;2023-02-28T02:38:20;21.60;61.40
2995;DHT22;35277;49.890;8.222;2023-02-28T02:40:56;21.70;61.50
2995;DHT22;35277;49.890;8.222;2023-02-28T02:43:31;21.60;61.40
2995;DHT22;35277;49.890;8.222;2023-02-28T02:46:04;21.70;61.60
2995;DHT22;35277;49.890;8.222;2023-02-28T02:48:36;21.60;61.50
2995;DHT22;35277;49.890;8.222;2023-02-28T02:51:12;21.70;61.60
2995;DHT22;35277;49.890;8.222;2023-02-28T02:53:45;21.60;61.50
2995;DHT22;35277;49.890;8.222;2023-02-28T02:56:18;21.70;61.50
2995;DHT22;35277;49.890;8.222;2023-02-28T02:58:49;21.70;61.60
2995;DHT22;35277;49.890;8.222;2023-02-28T03:01:20;21.70;61.60
2995;DHT22;35277;49.890;8.222;2023-02-28T03:03:57;21.60;61.50
2995;DHT22;35277;49.890;8.222;2023-02-28T03:06:27;21.60;61.50
2995;DHT22;35277;49.890;8.222;2023-02-28T03:08:54;21.70;61.60
2995;DHT22;35277;49.890;8.222;2023-02-28T03:11:23;21.60;61.50
2995;DHT22;35277;49.890;8.222;2023-02-28T03:14:16;21.60;61.50
2995;DHT22;35277;49.890;8.222;2023-02-28T03:16:58;21.60;61.50
2995;DHT22;35277;49.890;8.222;2023-02-28T03:19:45;21.70;61.60
2995;DHT22;35277;49.890;8.222;2023-02-28T03:22:26;21.60;61.60
2995;DHT22;35277;49.890;8.222;2023-02-28T03:25:03;21.60;61.60
2995;DHT22;35277;49.890;8.222;2023-02-28T03:27:39;21.60;61.50
2995;DHT22;35277;49.890;8.222;2023-02-28T03:30:12;21.60;61.60
2995;DHT22;35277;49.890;8.222;2023-02-28T03:32:47;21.60;61.60
2995;DHT22;35277;49.890;8.222;2023-02-28T03:35:20;21.60;61.60
2995;DHT22;35277;49.890;8.222;2023-02-28T03:37:55;21.60;61.60
2995;DHT22;35277;49.890;8.222;2023-02-28T03:40:28;21.60;61.60
2995;DHT22;35277;49.890;8.222;2023-02-28T03:43:01;21.60;61.60
2995;DHT22;35277;49.890;8.222;2023-02-28T03:45:33;21.60;61.60
2995;DHT22;35277;49.890;8.222;2023-02-28T03:48:08;21.70;61.70
2995;DHT22;35277;49.890;8.222;2023-02-28T03:50:41;21.60;61.60
2995;DHT22;35277;49.890;8.222;2023-02-28T03:53:15;21.60;61.60
2995;DHT22;35277;49.890;8.222;2023-02-28T03:55:47;21.60;61.60
2995;DHT22;35277;49.890;8.222;2023-02-28T03:58:21;21.70;61.80
2995;DHT22;35277;49.890;8.222;2023-02-28T04:00:55;21.70;61.70
2995;DHT22;35277;49.890;8.222;2023-02-28T04:03:24;21.60;61.60
2995;DHT22;35277;49.890;8.222;2023-02-28T04:05:54;21.60;61.60
2995;DHT22;35277;49.890;8.222;2023-02-28T04:08:23;21.60;62.50
2995;DHT22;35277;49.890;8.222;2023-02-28T04:10:54;21.60;61.60
2995;DHT22;35277;49.890;8.222;2023-02-28T04:13:23;21.70;61.80
2995;DHT22;35277;49.890;8.222;2023-02-28T04:15:51;21.60;61.60
2995;DHT22;35277;49.890;8.222;2023-02-28T04:18:19;21.60;61.60
2995;DHT22;35277;49.890;8.222;2023-02-28T04:20:47;21.70;61.80
2995;DHT22;35277;49.890;8.222;2023-02-28T04:23:14;21.60;61.60
2995;DHT22;35277;49.890;8.222;2023-02-28T04:25:43;21.70;61.80
2995;DHT22;35277;49.890;8.222;2023-02-28T04:28:11;21.60;61.60
2995;DHT22;35277;49.890;8.222;2023-02-28T04:30:39;21.60;61.60
2995;DHT22;35277;49.890;8.222;2023-02-28T04:33:07;21.60;61.70
2995;DHT22;35277;49.890;8.222;2023-02-28T04:35:34;21.60;61.60
2995;DHT22;35277;49.890;8.222;2023-02-28T04:38:02;21.70;61.80
2995;DHT22;35277;49.890;8.222;2023-02-28T04:40:30;21.60;61.70
2995;DHT22;35277;49.890;8.222;2023-02-28T04:42:59;21.60;61.60
2995;DHT22;35277;49.890;8.222;2023-02-28T04:45:26;21.70;61.80
2995;DHT22;35277;49.890;8.222;2023-02-28T04:47:56;21.60;61.70
2995;DHT22;35277;49.890;8.222;2023-02-28T04:50:24;21.70;61.80
2995;DHT22;35277;49.890;8.222;2023-02-28T04:52:51;21.70;61.80
2995;DHT22;35277;49.890;8.222;2023-02-28T04:55:19;21.60;61.70
2995;DHT22;35277;49.890;8.222;2023-02-28T04:57:47;21.60;61.70
2995;DHT22;35277;49.890;8.222;2023-02-28T05:00:17;21.70;61.80
2995;DHT22;35277;49.890;8.222;2023-02-28T05:02:45;21.60;61.70
2995;DHT22;35277;49.890;8.222;2023-02-28T05:05:12;21.60;61.70
2995;DHT22;35277;49.890;8.222;2023-02-28T05:07:44;21.60;61.70
2995;DHT22;35277;49.890;8.222;2023-02-28T05:10:12;21.60;61.70
2995;DHT22;35277;49.890;8.222;2023-02-28T05:12:40;21.60;61.60
2995;DHT22;35277;49.890;8.222;2023-02-28T05:15:09;21.70;61.80
2995;DHT22;35277;49.890;8.222;2023-02-28T05:17:41;21.60;61.60
2995;DHT22;35277;49.890;8.222;2023-02-28T05:20:10;21.60;61.60
2995;DHT22;35277;49.890;8.222;2023-02-28T05:22:42;21.60;61.50
2995;DHT22;35277;49.890;8.222;2023-02-28T05:25:12;21.60;61.50
2995;DHT22;35277;49.890;8.222;2023-02-28T05:27:41;21.60;61.50
2995;DHT22;35277;49.890;8.222;2023-02-28T05:30:10;21.60;61.40
2995;DHT22;35277;49.890;8.222;2023-02-28T05:32:39;21.60;61.40
2995;DHT22;35277;49.890;8.222;2023-02-28T05:35:11;21.60;61.30
2995;DHT22;35277;49.890;8.222;2023-02-28T05:37:39;21.60;61.30
2995;DHT22;35277;49.890;8.222;2023-02-28T05:40:08;21.60;61.20
2995;DHT22;35277;49.890;8.222;2023-02-28T05:42:37;21.60;61.20
2995;DHT22;35277;49.890;8.222;2023-02-28T05:45:05;21.60;61.20
2995;DHT22;35277;49.890;8.222;2023-02-28T05:47:34;21.60;61.10
2995;DHT22;35277;49.890;8.222;2023-02-28T05:50:03;21.60;61.10
2995;DHT22;35277;49.890;8.222;2023-02-28T05:52:32;21.60;61.10
2995;DHT22;35277;49.890;8.222;2023-02-28T05:55:00;21.60;61.20
2995;DHT22;35277;49.890;8.222;2023-02-28T05:57:27;21.60;61.60
2995;DHT22;35277;49.890;8.222;2023-02-28T05:59:55;21.60;61.80
2995;DHT22;35277;49.890;8.222;2023-02-28T06:02:23;21.60;61.70
2995;DHT22;35277;49.890;8.222;2023-02-28T06:04:51;21.60;61.60
2995;DHT22;35277;49.890;8.222;2023-02-28T06:07:18;21.60;61.40
2995;DHT22;35277;49.890;8.222;2023-02-28T06:09:47;21.60;61.30
2995;DHT22;35277;49.890;8.222;2023-02-28T06:12:15;21.60;61.20
2995;DHT22;35277;49.890;8.222;2023-02-28T06:14:44;21.60;61.10
2995;DHT22;35277;49.890;8.222;2023-02-28T06:17:11;21.70;61.20
2995;DHT22;35277;49.890;8.222;2023-02-28T06:19:39;21.60;61.10
2995;DHT22;35277;49.890;8.222;2023-02-28T06:22:07;21.60;61.20
2995;DHT22;35277;49.890;8.222;2023-02-28T06:24:35;21.70;61.40
2995;DHT22;35277;49.890;8.222;2023-02-28T06:27:04;21.60;61.30
2995;DHT22;35277;49.890;8.222;2023-02-28T06:29:32;21.70;61.50
2995;DHT22;35277;49.890;8.222;2023-02-28T06:32:00;21.70;61.70
2995;DHT22;35277;49.890;8.222;2023-02-28T06:34:28;21.70;61.80
2995;DHT22;35277;49.890;8.222;2023-02-28T06:36:57;21.70;61.90
2995;DHT22;35277;49.890;8.222;2023-02-28T06:39:28;21.70;62.00
2995;DHT22;35277;49.890;8.222;2023-02-28T06:41:56;21.70;62.10
2995;DHT22;35277;49.890;8.222;2023-02-28T06:44:25;21.70;62.10
2995;DHT22;35277;49.890;8.222;2023-02-28T06:46:53;21.70;62.20
2995;DHT22;35277;49.890;8.222;2023-02-28T06:49:21;21.70;62.20
2995;DHT22;35277;49.890;8.222;2023-02-28T06:51:49;21.70;62.20
2995;DHT22;35277;49.890;8.222;2023-02-28T06:54:16;21.70;62.20
2995;DHT22;35277;49.890;8.222;2023-02-28T06:56:44;21.70;62.20
2995;DHT22;35277;49.890;8.222;2023-02-28T06:59:13;21.70;62.10
2995;DHT22;35277;49.890;8.222;2023-02-28T07:01:42;21.70;62.00
2995;DHT22;35277;49.890;8.222;2023-02-28T07:04:10;21.70;61.90
2995;DHT22;35277;49.890;8.222;2023-02-28T07:06:39;21.70;61.80
2995;DHT22;35277;49.890;8.222;2023-02-28T07:09:07;21.70;61.80
2995;DHT22;35277;49.890;8.222;2023-02-28T07:11:35;21.70;61.70
2995;DHT22;35277;49.890;8.222;2023-02-28T07:14:03;21.70;61.60
2995;DHT22;35277;49.890;8.222;2023-02-28T07:16:31;21.70;61.60
2995;DHT22;35277;49.890;8.222;2023-02-28T07:19:00;21.70;61.50
2995;DHT22;35277;49.890;8.222;2023-02-28T07:21:28;21.70;61.40
2995;DHT22;35277;49.890;8.222;2023-02-28T07:23:56;21.70;61.40
2995;DHT22;35277;49.890;8.222;2023-02-28T07:26:24;21.70;61.40
2995;DHT22;35277;49.890;8.222;2023-02-28T07:28:52;21.70;61.30
2995;DHT22;35277;49.890;8.222;2023-02-28T07:31:20;21.70;61.30
2995;DHT22;35277;49.890;8.222;2023-02-28T07:33:48;21.70;61.30
2995;DHT22;35277;49.890;8.222;2023-02-28T07:36:17;21.70;61.20
2995;DHT22;35277;49.890;8.222;2023-02-28T07:38:47;21.70;61.20
2995;DHT22;35277;49.890;8.222;2023-02-28T07:41:17;21.70;61.20
2995;DHT22;35277;49.890;8.222;2023-02-28T07:43:46;21.70;61.10
2995;DHT22;35277;49.890;8.222;2023-02-28T07:46:15;21.70;61.00
2995;DHT22;35277;49.890;8.222;2023-02-28T07:48:44;21.70;61.00
2995;DHT22;35277;49.890;8.222;2023-02-28T07:51:12;21.70;61.00
2995;DHT22;35277;49.890;8.222;2023-02-28T07:53:41;21.70;61.00
2995;DHT22;35277;49.890;8.222;2023-02-28T07:56:09;21.70;60.90
2995;DHT22;35277;49.890;8.222;2023-02-28T07:58:37;21.70;60.90
2995;DHT22;35277;49.890;8.222;2023-02-28T08:01:06;21.70;60.90
2995;DHT22;35277;49.890;8.222;2023-02-28T08:03:35;21.70;60.90
2995;DHT22;35277;49.890;8.222;2023-02-28T08:06:04;21.70;60.80
2995;DHT22;35277;49.890;8.222;2023-02-28T08:08:32;21.70;60.80
2995;DHT22;35277;49.890;8.222;2023-02-28T08:11:03;21.70;60.90
2995;DHT22;35277;49.890;8.222;2023-02-28T08:13:31;21.70;61.50
2995;DHT22;35277;49.890;8.222;2023-02-28T08:16:01;21.70;61.80
2995;DHT22;35277;49.890;8.222;2023-02-28T08:18:29;21.70;62.10
2995;DHT22;35277;49.890;8.222;2023-02-28T08:20:57;21.80;62.60
2995;DHT22;35277;49.890;8.222;2023-02-28T08:23:25;21.80;62.80
2995;DHT22;35277;49.890;8.222;2023-02-28T08:25:53;21.80;63.00
2995;DHT22;35277;49.890;8.222;2023-02-28T08:28:23;21.80;63.20
2995;DHT22;35277;49.890;8.222;2023-02-28T08:30:53;21.80;63.20
2995;DHT22;35277;49.890;8.222;2023-02-28T08:33:21;21.80;63.20
2995;DHT22;35277;49.890;8.222;2023-02-28T08:35:52;21.80;63.30
2995;DHT22;35277;49.890;8.222;2023-02-28T08:38:20;21.80;63.20
2995;DHT22;35277;49.890;8.222;2023-02-28T08:40:48;21.80;63.30
2995;DHT22;35277;49.890;8.222;2023-02-28T08:43:16;21.80;63.30
2995;DHT22;35277;49.890;8.222;2023-02-28T08:45:45;21.80;63.30
2995;DHT22;35277;49.890;8.222;2023-02-28T08:48:12;21.80;63.20
2995;DHT22;35277;49.890;8.222;2023-02-28T08:50:43;21.80;63.20
2995;DHT22;35277;49.890;8.222;2023-02-28T08:53:21;21.80;63.20
2995;DHT22;35277;49.890;8.222;2023-02-28T08:55:56;21.80;63.20
2995;DHT22;35277;49.890;8.222;2023-02-28T08:58:23;21.80;63.20
2995;DHT22;35277;49.890;8.222;2023-02-28T09:00:53;21.80;63.10
2995;DHT22;35277;49.890;8.222;2023-02-28T09:03:21;21.80;62.90
2995;DHT22;35277;49.890;8.222;2023-02-28T09:05:58;21.90;62.90
2995;DHT22;35277;49.890;8.222;2023-02-28T09:08:28;21.80;62.60
2995;DHT22;35277;49.890;8.222;2023-02-28T09:10:57;21.80;62.50
2995;DHT22;35277;49.890;8.222;2023-02-28T09:13:28;21.80;62.40
2995;DHT22;35277;49.890;8.222;2023-02-28T09:15:59;21.80;62.40
2995;DHT22;35277;49.890;8.222;2023-02-28T09:18:28;21.80;62.40
2995;DHT22;35277;49.890;8.222;2023-02-28T09:20:56;21.80;62.40
2995;DHT22;35277;49.890;8.222;2023-02-28T09:23:24;21.80;62.40
2995;DHT22;35277;49.890;8.222;2023-02-28T09:25:53;21.80;62.40
2995;DHT22;35277;49.890;8.222;2023-02-28T09:28:21;21.80;62.40
2995;DHT22;35277;49.890;8.222;2023-02-28T09:30:51;21.80;62.30
2995;DHT22;35277;49.890;8.222;2023-02-28T09:33:22;21.80;62.30
2995;DHT22;35277;49.890;8.222;2023-02-28T09:35:50;21.80;62.30
2995;DHT22;35277;49.890;8.222;2023-02-28T09:38:19;21.90;62.30
2995;DHT22;35277;49.890;8.222;2023-02-28T09:40:49;21.90;62.30
2995;DHT22;35277;49.890;8.222;2023-02-28T09:43:21;21.90;62.20
2995;DHT22;35277;49.890;8.222;2023-02-28T09:45:54;21.90;62.20
2995;DHT22;35277;49.890;8.222;2023-02-28T09:48:29;21.90;62.10
2995;DHT22;35277;49.890;8.222;2023-02-28T09:51:01;21.90;62.10
2995;DHT22;35277;49.890;8.222;2023-02-28T09:53:32;21.90;62.00
2995;DHT22;35277;49.890;8.222;2023-02-28T09:56:04;21.90;62.00
2995;DHT22;35277;49.890;8.222;2023-02-28T09:58:37;21.90;61.90
2995;DHT22;35277;49.890;8.222;2023-02-28T10:01:11;21.90;61.80
2995;DHT22;35277;49.890;8.222;2023-02-28T10:03:44;21.90;61.80
2995;DHT22;35277;49.890;8.222;2023-02-28T10:06:18;22.00;61.80
2995;DHT22;35277;49.890;8.222;2023-02-28T10:08:52;22.00;61.80
2995;DHT22;35277;49.890;8.222;2023-02-28T10:11:22;22.00;61.70
2995;DHT22;35277;49.890;8.222;2023-02-28T10:13:53;22.00;61.60
2995;DHT22;35277;49.890;8.222;2023-02-28T10:16:28;22.00;61.50
2995;DHT22;35277;49.890;8.222;2023-02-28T10:19:03;22.00;61.40
2995;DHT22;35277;49.890;8.222;2023-02-28T10:21:35;22.00;61.30
2995;DHT22;35277;49.890;8.222;2023-02-28T10:26:52;22.00;61.20
2995;DHT22;35277;49.890;8.222;2023-02-28T10:29:21;22.00;61.20
2995;DHT22;35277;49.890;8.222;2023-02-28T10:31:48;22.00;61.10
2995;DHT22;35277;49.890;8.222;2023-02-28T10:34:18;22.00;61.10
2995;DHT22;35277;49.890;8.222;2023-02-28T10:36:46;22.00;61.00
2995;DHT22;35277;49.890;8.222;2023-02-28T10:39:39;22.00;61.00
2995;DHT22;35277;49.890;8.222;2023-02-28T10:42:20;22.00;61.00
2995;DHT22;35277;49.890;8.222;2023-02-28T10:44:48;22.00;61.10
2995;DHT22;35277;49.890;8.222;2023-02-28T10:47:17;22.00;61.00
2995;DHT22;35277;49.890;8.222;2023-02-28T10:49:49;22.00;61.00
2995;DHT22;35277;49.890;8.222;2023-02-28T10:52:33;22.00;61.00
2995;DHT22;35277;49.890;8.222;2023-02-28T10:55:21;22.00;61.20
2995;DHT22;35277;49.890;8.222;2023-02-28T10:57:49;22.00;61.60
2995;DHT22;35277;49.890;8.222;2023-02-28T11:00:19;22.10;61.90
2995;DHT22;35277;49.890;8.222;2023-02-28T11:02:48;22.10;62.10
2995;DHT22;35277;49.890;8.222;2023-02-28T11:05:26;22.10;62.10
2995;DHT22;35277;49.890;8.222;2023-02-28T11:07:56;22.20;62.60
2995;DHT22;35277;49.890;8.222;2023-02-28T11:10:29;22.20;62.70
2995;DHT22;35277;49.890;8.222;2023-02-28T11:12:58;22.20;62.70
2995;DHT22;35277;49.890;8.222;2023-02-28T11:15:28;22.20;62.60
2995;DHT22;35277;49.890;8.222;2023-02-28T11:17:59;22.30;62.70
2995;DHT22;35277;49.890;8.222;2023-02-28T11:20:32;22.30;62.70
2995;DHT22;35277;49.890;8.222;2023-02-28T11:23:01;22.30;62.60
2995;DHT22;35277;49.890;8.222;2023-02-28T11:25:32;22.30;62.70
2995;DHT22;35277;49.890;8.222;2023-02-28T11:28:02;22.40;62.70
2995;DHT22;35277;49.890;8.222;2023-02-28T11:30:36;22.40;62.70
2995;DHT22;35277;49.890;8.222;2023-02-28T11:33:24;22.40;62.70
2995;DHT22;35277;49.890;8.222;2023-02-28T11:35:58;22.40;62.40
2995;DHT22;35277;49.890;8.222;2023-02-28T11:38:27;22.40;62.00
2995;DHT22;35277;49.890;8.222;2023-02-28T11:41:24;22.40;61.60
2995;DHT22;35277;49.890;8.222;2023-02-28T11:44:17;22.40;61.60
2995;DHT22;35277;49.890;8.222;2023-02-28T11:46:50;22.40;61.50
2995;DHT22;35277;49.890;8.222;2023-02-28T11:49:31;22.40;61.30
2995;DHT22;35277;49.890;8.222;2023-02-28T11:52:10;22.40;60.90
2995;DHT22;35277;49.890;8.222;2023-02-28T11:54:58;22.40;60.40
2995;DHT22;35277;49.890;8.222;2023-02-28T11:57:38;22.40;59.90
2995;DHT22;35277;49.890;8.222;2023-02-28T12:00:20;22.40;59.50
2995;DHT22;35277;49.890;8.222;2023-02-28T12:03:02;22.40;59.00
2995;DHT22;35277;49.890;8.222;2023-02-28T12:05:36;22.40;58.60
2995;DHT22;35277;49.890;8.222;2023-02-28T12:08:21;22.40;58.30
2995;DHT22;35277;49.890;8.222;2023-02-28T12:11:00;22.30;57.80
2995;DHT22;35277;49.890;8.222;2023-02-28T12:13:41;22.30;57.40
2995;DHT22;35277;49.890;8.222;2023-02-28T12:16:35;22.30;57.00
2995;DHT22;35277;49.890;8.222;2023-02-28T12:19:13;22.30;56.60
2995;DHT22;35277;49.890;8.222;2023-02-28T12:21:55;22.30;56.10
2995;DHT22;35277;49.890;8.222;2023-02-28T12:24:39;22.30;55.80
2995;DHT22;35277;49.890;8.222;2023-02-28T12:27:16;22.20;55.40
2995;DHT22;35277;49.890;8.222;2023-02-28T12:29:49;22.20;55.00
2995;DHT22;35277;49.890;8.222;2023-02-28T12:32:23;22.20;54.70
2995;DHT22;35277;49.890;8.222;2023-02-28T12:34:56;22.20;54.40
2995;DHT22;35277;49.890;8.222;2023-02-28T12:37:31;22.20;54.20
2995;DHT22;35277;49.890;8.222;2023-02-28T12:40:03;22.20;53.90
2995;DHT22;35277;49.890;8.222;2023-02-28T12:42:36;22.10;53.60
2995;DHT22;35277;49.890;8.222;2023-02-28T12:45:10;22.10;53.30
2995;DHT22;35277;49.890;8.222;2023-02-28T12:47:42;22.10;53.10
2995;DHT22;35277;49.890;8.222;2023-02-28T12:50:12;22.10;52.90
2995;DHT22;35277;49.890;8.222;2023-02-28T12:52:47;22.10;52.70
2995;DHT22;35277;49.890;8.222;2023-02-28T12:55:23;22.00;52.50
2995;DHT22;35277;49.890;8.222;2023-02-28T12:57:58;22.00;52.40
2995;DHT22;35277;49.890;8.222;2023-02-28T13:00:34;22.00;52.20
2995;DHT22;35277;49.890;8.222;2023-02-28T13:03:27;22.00;52.00
2995;DHT22;35277;49.890;8.222;2023-02-28T13:06:20;22.00;51.80
2995;DHT22;35277;49.890;8.222;2023-02-28T13:09:02;22.00;51.70
2995;DHT22;35277;49.890;8.222;2023-02-28T13:11:37;22.00;51.50
2995;DHT22;35277;49.890;8.222;2023-02-28T13:14:19;22.00;51.30
2995;DHT22;35277;49.890;8.222;2023-02-28T13:16:55;22.00;51.90
2995;DHT22;35277;49.890;8.222;2023-02-28T13:19:25;22.00;51.20
2995;DHT22;35277;49.890;8.222;2023-02-28T13:21:54;22.00;51.30
2995;DHT22;35277;49.890;8.222;2023-02-28T13:24:52;22.00;51.30
2995;DHT22;35277;49.890;8.222;2023-02-28T13:27:34;22.00;51.40
2995;DHT22;35277;49.890;8.222;2023-02-28T13:33:27;22.10;51.80
2995;DHT22;35277;49.890;8.222;2023-02-28T13:36:10;22.10;52.00
2995;DHT22;35277;49.890;8.222;2023-02-28T13:38:50;22.10;52.10
2995;DHT22;35277;49.890;8.222;2023-02-28T13:41:45;22.20;52.30
2995;DHT22;35277;49.890;8.222;2023-02-28T13:44:17;22.20;52.50
2995;DHT22;35277;49.890;8.222;2023-02-28T13:47:23;22.20;52.60
2995;DHT22;35277;49.890;8.222;2023-02-28T13:49:52;22.20;52.80
2995;DHT22;35277;49.890;8.222;2023-02-28T13:52:22;22.30;53.00
2995;DHT22;35277;49.890;8.222;2023-02-28T13:57:55;22.30;53.30
2995;DHT22;35277;49.890;8.222;2023-02-28T14:00:41;22.30;53.40
2995;DHT22;35277;49.890;8.222;2023-02-28T14:03:36;22.30;53.50
2995;DHT22;35277;49.890;8.222;2023-02-28T14:06:22;22.40;53.70
2995;DHT22;35277;49.890;8.222;2023-02-28T14:08:55;22.40;53.90
2995;DHT22;35277;49.890;8.222;2023-02-28T14:11:27;22.40;53.90
2995;DHT22;35277;49.890;8.222;2023-02-28T14:13:55;22.40;54.10
2995;DHT22;35277;49.890;8.222;2023-02-28T14:16:26;22.40;54.20
2995;DHT22;35277;49.890;8.222;2023-02-28T14:18:58;22.50;54.40
2995;DHT22;35277;49.890;8.222;2023-02-28T14:21:30;22.50;54.50
2995;DHT22;35277;49.890;8.222;2023-02-28T14:24:24;22.50;54.60
2995;DHT22;35277;49.890;8.222;2023-02-28T14:27:22;22.50;54.70
2995;DHT22;35277;49.890;8.222;2023-02-28T14:30:25;22.50;54.80
2995;DHT22;35277;49.890;8.222;2023-02-28T14:33:13;22.60;54.90
2995;DHT22;35277;49.890;8.222;2023-02-28T14:35:56;22.60;54.90
2995;DHT22;35277;49.890;8.222;2023-02-28T14:38:28;22.60;55.00
2995;DHT22;35277;49.890;8.222;2023-02-28T14:40:59;22.60;55.00
2995;DHT22;35277;49.890;8.222;2023-02-28T14:43:28;22.60;55.10
2995;DHT22;35277;49.890;8.222;2023-02-28T14:45:58;22.70;55.20
2995;DHT22;35277;49.890;8.222;2023-02-28T14:48:28;22.70;55.20
2995;DHT22;35277;49.890;8.222;2023-02-28T14:50:58;22.70;55.30
2995;DHT22;35277;49.890;8.222;2023-02-28T14:53:30;22.70;55.30
2995;DHT22;35277;49.890;8.222;2023-02-28T14:55:58;22.70;55.40
2995;DHT22;35277;49.890;8.222;2023-02-28T14:58:28;22.70;55.30
2995;DHT22;35277;49.890;8.222;2023-02-28T15:00:58;22.70;55.40
2995;DHT22;35277;49.890;8.222;2023-02-28T15:03:32;22.70;55.50
2995;DHT22;35277;49.890;8.222;2023-02-28T15:06:01;22.80;55.70
2995;DHT22;35277;49.890;8.222;2023-02-28T15:08:30;22.70;55.60
2995;DHT22;35277;49.890;8.222;2023-02-28T15:11:04;22.80;55.80
2995;DHT22;35277;49.890;8.222;2023-02-28T15:13:37;22.80;55.80
2995;DHT22;35277;49.890;8.222;2023-02-28T15:16:08;22.80;55.90
2995;DHT22;35277;49.890;8.222;2023-02-28T15:18:44;22.80;55.90
2995;DHT22;35277;49.890;8.222;2023-02-28T15:21:16;22.80;56.00
2995;DHT22;35277;49.890;8.222;2023-02-28T15:23:48;22.80;56.00
2995;DHT22;35277;49.890;8.222;2023-02-28T15:26:21;22.80;56.00
2995;DHT22;35277;49.890;8.222;2023-02-28T15:28:50;22.80;56.00
2995;DHT22;35277;49.890;8.222;2023-02-28T15:31:24;22.80;56.10
2995;DHT22;35277;49.890;8.222;2023-02-28T15:33:56;22.90;56.20
2995;DHT22;35277;49.890;8.222;2023-02-28T15:36:26;22.90;56.20
2995;DHT22;35277;49.890;8.222;2023-02-28T15:38:56;22.90;56.20
2995;DHT22;35277;49.890;8.222;2023-02-28T15:41:41;22.90;56.20
2995;DHT22;35277;49.890;8.222;2023-02-28T15:44:17;22.90;56.20
2995;DHT22;35277;49.890;8.222;2023-02-28T15:46:55;22.90;56.20
2995;DHT22;35277;49.890;8.222;2023-02-28T15:49:25;22.90;56.20
2995;DHT22;35277;49.890;8.222;2023-02-28T15:51:55;22.90;56.30
2995;DHT22;35277;49.890;8.222;2023-02-28T15:54:29;22.90;56.30
2995;DHT22;35277;49.890;8.222;2023-02-28T15:56:59;22.90;56.30
2995;DHT22;35277;49.890;8.222;2023-02-28T15:59:29;22.90;56.30
2995;DHT22;35277;49.890;8.222;2023-02-28T16:02:14;22.90;56.40
2995;DHT22;35277;49.890;8.222;2023-02-28T16:05:12;22.90;56.40
2995;DHT22;35277;49.890;8.222;2023-02-28T16:07:45;22.90;56.50
2995;DHT22;35277;49.890;8.222;2023-02-28T16:10:15;22.90;56.40
2995;DHT22;35277;49.890;8.222;2023-02-28T16:12:43;22.90;56.50
2995;DHT22;35277;49.890;8.222;2023-02-28T16:15:19;22.90;56.50
2995;DHT22;35277;49.890;8.222;2023-02-28T16:17:48;22.90;56.50
2995;DHT22;35277;49.890;8.222;2023-02-28T16:20:19;22.90;56.70
2995;DHT22;35277;49.890;8.222;2023-02-28T16:22:47;22.90;56.60
2995;DHT22;35277;49.890;8.222;2023-02-28T16:25:16;22.90;56.70
2995;DHT22;35277;49.890;8.222;2023-02-28T16:27:48;22.90;56.70